Time;durP1;ratioP1;P1;durP2;ratioP2;P2;SDS_P1;SDS_P2;PMS_P1;PMS_P2;Temp;Humidity;BMP_temperature;BMP_pressure;BME280_temperature;BME280_humidity;BME280_pressure;Samples;Min_cycle;Max_cycle;Signal;HPM_P1;HPM_P2
2021/11/13 00:02:06;;;;;;;;;;;18.10;72.60;;;;;;5095339;28;19924;-51
2021/11/13 00:04:33;;;;;;;;;;;18.10;72.60;;;;;;5081928;28;19929;-49
2021/11/13 00:07:00;;;;;;;;;;;18.10;72.70;;;;;;5095246;28;19973;-52
2021/11/13 00:09:27;;;;;;;;;;;18.10;72.60;;;;;;5095303;28;19963;-47
2021/11/13 00:11:56;;;;;;;;;;;18.10;72.70;;;;;;5095551;28;19935;-53
2021/11/13 00:14:23;;;;;;;;;;;18.10;72.70;;;;;;5095501;28;19924;-50
2021/11/13 00:16:50;;;;;;;;;;;18.10;73.40;;;;;;5094520;28;19924;-49
2021/11/13 00:19:17;;;;;;;;;;;18.10;72.60;;;;;;5083730;28;19928;-48
2021/11/13 00:21:44;;;;;;;;;;;18.10;72.60;;;;;;5093481;28;19924;-47
2021/11/13 00:24:11;;;;;;;;;;;18.10;72.70;;;;;;5095128;28;19931;-51
2021/11/13 00:26:38;;;;;;;;;;;18.10;72.70;;;;;;5095832;28;19937;-50
2021/11/13 00:29:05;;;;;;;;;;;18.10;72.70;;;;;;5077301;28;19928;-50
2021/11/13 00:31:32;;;;;;;;;;;18.10;72.60;;;;;;5094884;28;19930;-52
2021/11/13 00:33:59;;;;;;;;;;;18.10;72.60;;;;;;5087261;28;20334;-51
2021/11/13 00:36:27;;;;;;;;;;;18.10;72.70;;;;;;5089361;28;19928;-50
2021/11/13 00:38:54;;;;;;;;;;;18.10;72.70;;;;;;5094728;28;19924;-48
2021/11/13 00:41:21;;;;;;;;;;;18.10;72.70;;;;;;5094648;28;19982;-49
2021/11/13 00:43:48;;;;;;;;;;;18.10;72.60;;;;;;5094956;28;19924;-49
2021/11/13 00:46:15;;;;;;;;;;;18.10;72.70;;;;;;5094576;28;19924;-48
2021/11/13 00:48:42;;;;;;;;;;;18.10;72.60;;;;;;5090455;28;19929;-49
2021/11/13 00:51:09;;;;;;;;;;;18.10;72.60;;;;;;5085253;28;19924;-51
2021/11/13 00:53:36;;;;;;;;;;;18.10;72.60;;;;;;5094211;28;19924;-50
2021/11/13 00:56:04;;;;;;;;;;;18.10;72.60;;;;;;5094406;28;19927;-52
2021/11/13 00:58:31;;;;;;;;;;;18.10;72.70;;;;;;5095591;28;19924;-46
2021/11/13 01:00:58;;;;;;;;;;;18.10;72.70;;;;;;5094316;28;19924;-47
2021/11/13 01:03:25;;;;;;;;;;;18.10;72.70;;;;;;5094308;28;19928;-52
2021/11/13 01:05:52;;;;;;;;;;;18.10;72.70;;;;;;5080966;28;19924;-49
2021/11/13 01:08:19;;;;;;;;;;;18.10;72.60;;;;;;5094464;28;19924;-48
2021/11/13 01:10:46;;;;;;;;;;;18.10;72.70;;;;;;5094534;28;20264;-49
2021/11/13 01:13:13;;;;;;;;;;;18.10;72.60;;;;;;5094169;28;19932;-48
2021/11/13 01:15:40;;;;;;;;;;;18.10;72.60;;;;;;5076589;28;19924;-46
2021/11/13 01:18:07;;;;;;;;;;;18.10;72.60;;;;;;5094094;28;20375;-53
2021/11/13 01:20:34;;;;;;;;;;;18.10;72.60;;;;;;5081332;28;19930;-55
2021/11/13 01:23:01;;;;;;;;;;;18.10;72.60;;;;;;5093782;28;20027;-52
2021/11/13 01:25:28;;;;;;;;;;;18.10;72.60;;;;;;5094325;28;19950;-52
2021/11/13 01:27:56;;;;;;;;;;;18.10;72.60;;;;;;5093040;28;19931;-51
2021/11/13 01:30:24;;;;;;;;;;;18.10;72.60;;;;;;5094242;28;19924;-52
2021/11/13 01:32:51;;;;;;;;;;;18.10;72.60;;;;;;5094232;28;19973;-50
2021/11/13 01:35:19;;;;;;;;;;;18.10;72.60;;;;;;5081752;28;20268;-53
2021/11/13 01:37:45;;;;;;;;;;;18.10;72.60;;;;;;5093747;28;19964;-49
2021/11/13 01:40:14;;;;;;;;;;;18.10;72.60;;;;;;5094153;28;19928;-53
2021/11/13 01:42:42;;;;;;;;;;;18.10;72.70;;;;;;5094040;28;19924;-55
2021/11/13 01:45:09;;;;;;;;;;;18.10;72.60;;;;;;5093780;28;19977;-49
2021/11/13 01:47:38;;;;;;;;;;;18.10;72.60;;;;;;5093764;28;20393;-48
2021/11/13 01:50:16;;;;;;;;;;;18.10;72.60;;;;;;5083842;28;19974;-47
2021/11/13 01:52:43;;;;;;;;;;;18.10;72.60;;;;;;5092801;28;20341;-51
2021/11/13 01:55:11;;;;;;;;;;;18.10;72.60;;;;;;5093761;28;19924;-51
2021/11/13 01:57:45;;;;;;;;;;;18.10;72.70;;;;;;5093990;28;20337;-51
2021/11/13 02:00:23;;;;;;;;;;;18.10;72.60;;;;;;5093998;28;19970;-51
2021/11/13 02:02:50;;;;;;;;;;;18.10;72.70;;;;;;5093917;28;19924;-48
2021/11/13 02:05:17;;;;;;;;;;;18.10;72.60;;;;;;5083397;28;20410;-51
2021/11/13 02:07:44;;;;;;;;;;;18.10;72.70;;;;;;5091297;28;19947;-48
2021/11/13 02:10:13;;;;;;;;;;;18.10;72.70;;;;;;5093649;28;19932;-52
2021/11/13 02:12:40;;;;;;;;;;;18.10;72.70;;;;;;5093856;28;19962;-50
2021/11/13 02:15:07;;;;;;;;;;;18.10;72.70;;;;;;5094373;28;19973;-49
2021/11/13 02:17:35;;;;;;;;;;;18.10;73.40;;;;;;5093505;28;19928;-44
2021/11/13 02:20:17;;;;;;;;;;;18.10;72.60;;;;;;5086859;28;19932;-48
2021/11/13 02:22:44;;;;;;;;;;;18.10;72.60;;;;;;5089511;28;20379;-48
2021/11/13 02:25:14;;;;;;;;;;;18.10;72.70;;;;;;5093445;28;19924;-46
2021/11/13 02:27:41;;;;;;;;;;;18.10;72.70;;;;;;5075863;28;19974;-46
2021/11/13 02:30:09;;;;;;;;;;;18.10;72.70;;;;;;5093411;28;19928;-54
2021/11/13 02:32:36;;;;;;;;;;;18.10;72.70;;;;;;5093341;28;19969;-53
2021/11/13 02:35:04;;;;;;;;;;;18.10;73.30;;;;;;5088267;28;20287;-55
2021/11/13 02:37:31;;;;;;;;;;;18.10;72.70;;;;;;5086249;28;20416;-54
2021/11/13 02:39:58;;;;;;;;;;;18.10;72.70;;;;;;5094969;28;20381;-53
2021/11/13 02:42:25;;;;;;;;;;;18.10;72.70;;;;;;5097238;28;19924;-54
2021/11/13 02:44:52;;;;;;;;;;;18.10;72.70;;;;;;5097276;28;19983;-55
2021/11/13 02:47:20;;;;;;;;;;;18.10;72.70;;;;;;5097246;28;19931;-55
2021/11/13 02:49:47;;;;;;;;;;;18.10;72.70;;;;;;5095272;28;20440;-52
2021/11/13 02:52:14;;;;;;;;;;;18.10;72.70;;;;;;5086260;28;19924;-51
2021/11/13 02:54:45;;;;;;;;;;;18.10;72.70;;;;;;5096611;28;20375;-53
2021/11/13 02:57:12;;;;;;;;;;;18.10;72.70;;;;;;5097079;28;20362;-53
2021/11/13 02:59:42;;;;;;;;;;;18.10;72.70;;;;;;5097016;28;19924;-55
2021/11/13 03:02:09;;;;;;;;;;;18.10;72.70;;;;;;5096573;28;19924;-54
2021/11/13 03:04:36;;;;;;;;;;;18.10;72.70;;;;;;5096631;28;19939;-49
2021/11/13 03:07:04;;;;;;;;;;;18.10;72.70;;;;;;5084078;28;19963;-52
2021/11/13 03:09:32;;;;;;;;;;;18.10;72.70;;;;;;5096488;28;19924;-48
2021/11/13 03:11:59;;;;;;;;;;;18.10;72.70;;;;;;5096445;28;19953;-51
2021/11/13 03:14:26;;;;;;;;;;;18.10;72.70;;;;;;5096394;28;19924;-51
2021/11/13 03:16:58;;;;;;;;;;;18.10;72.70;;;;;;5096679;28;19924;-52
2021/11/13 03:19:25;;;;;;;;;;;18.10;72.70;;;;;;5096359;28;19924;-50
2021/11/13 03:21:52;;;;;;;;;;;18.10;72.70;;;;;;5084000;28;19981;-53
2021/11/13 03:24:21;;;;;;;;;;;18.10;72.70;;;;;;5096341;28;19927;-54
2021/11/13 03:26:48;;;;;;;;;;;18.10;72.70;;;;;;5096152;28;19924;-50
2021/11/13 03:29:27;;;;;;;;;;;18.10;72.70;;;;;;5096125;28;20365;-52
2021/11/13 03:31:56;;;;;;;;;;;18.10;72.70;;;;;;5096410;28;19927;-53
2021/11/13 03:34:23;;;;;;;;;;;18.10;72.70;;;;;;5078850;28;19974;-53
2021/11/13 03:36:50;;;;;;;;;;;18.10;72.70;;;;;;5083560;28;20386;-53
2021/11/13 03:39:17;;;;;;;;;;;18.10;72.70;;;;;;5096234;28;19993;-54
2021/11/13 03:41:44;;;;;;;;;;;18.10;72.70;;;;;;5077990;28;20010;-54
2021/11/13 03:44:11;;;;;;;;;;;18.10;72.70;;;;;;5095811;28;19974;-51
2021/11/13 03:46:38;;;;;;;;;;;18.10;72.70;;;;;;5095782;28;20083;-52
2021/11/13 03:49:05;;;;;;;;;;;18.10;72.70;;;;;;5095718;28;19924;-46
2021/11/13 03:51:32;;;;;;;;;;;18.10;72.80;;;;;;5084026;28;20376;-48
2021/11/13 03:53:59;;;;;;;;;;;18.10;72.70;;;;;;5094266;28;20437;-53
2021/11/13 03:56:26;;;;;;;;;;;18.10;72.70;;;;;;5095541;28;19947;-54
2021/11/13 03:58:53;;;;;;;;;;;18.10;72.70;;;;;;5095870;28;20341;-48
2021/11/13 04:01:20;;;;;;;;;;;18.10;72.70;;;;;;5077623;28;19973;-51
2021/11/13 04:03:47;;;;;;;;;;;18.10;72.70;;;;;;5095679;28;19928;-48
2021/11/13 04:06:14;;;;;;;;;;;18.10;72.70;;;;;;5089269;28;19970;-50
2021/11/13 04:08:41;;;;;;;;;;;18.10;72.80;;;;;;5090528;28;19931;-49
2021/11/13 04:11:08;;;;;;;;;;;18.10;72.80;;;;;;5095590;28;19924;-50
2021/11/13 04:13:35;;;;;;;;;;;18.10;72.80;;;;;;5095286;28;19974;-46
2021/11/13 04:16:02;;;;;;;;;;;18.10;72.70;;;;;;5095486;28;19924;-47
2021/11/13 04:18:29;;;;;;;;;;;18.10;72.80;;;;;;5077248;28;19924;-54
2021/11/13 04:20:56;;;;;;;;;;;18.10;72.70;;;;;;5092727;28;19924;-47
2021/11/13 04:23:23;;;;;;;;;;;18.10;72.70;;;;;;5086047;28;19924;-48
2021/11/13 04:25:50;;;;;;;;;;;18.10;72.70;;;;;;5095024;28;20036;-51
2021/11/13 04:28:17;;;;;;;;;;;18.10;72.70;;;;;;5094959;28;19959;-47
2021/11/13 04:30:45;;;;;;;;;;;18.10;72.70;;;;;;5094930;28;19924;-45
2021/11/13 04:33:12;;;;;;;;;;;18.10;72.70;;;;;;5094842;28;19954;-52
2021/11/13 04:38:33;;;;;;;;;;;18.10;72.80;;;;;;5031372;28;19968;-46
2021/11/13 04:41:01;;;;;;;;;;;18.10;72.70;;;;;;5032813;28;19932;-48
2021/11/13 04:43:28;;;;;;;;;;;18.10;72.80;;;;;;5032567;28;19925;-50
2021/11/13 04:45:56;;;;;;;;;;;18.10;72.70;;;;;;5032467;28;20389;-53
2021/11/13 04:48:23;;;;;;;;;;;18.10;72.70;;;;;;5032391;28;19925;-48
2021/11/13 04:50:50;;;;;;;;;;;18.10;72.80;;;;;;5032401;28;20339;-50
2021/11/13 04:53:17;;;;;;;;;;;18.10;72.70;;;;;;5030349;28;20378;-50
2021/11/13 04:55:44;;;;;;;;;;;18.10;72.70;;;;;;5032045;28;20265;-51
2021/11/13 04:58:11;;;;;;;;;;;18.10;72.80;;;;;;5032287;28;20447;-51
2021/11/13 05:00:38;;;;;;;;;;;18.10;72.80;;;;;;5032211;28;20454;-48
2021/11/13 05:03:05;;;;;;;;;;;18.10;72.70;;;;;;5032084;28;19935;-50
2021/11/13 05:05:32;;;;;;;;;;;18.10;72.80;;;;;;5032133;28;19925;-48
2021/11/13 05:07:59;;;;;;;;;;;18.10;72.70;;;;;;5030186;28;19987;-52
2021/11/13 05:10:26;;;;;;;;;;;18.10;72.70;;;;;;5032110;28;19975;-48
2021/11/13 05:12:53;;;;;;;;;;;18.10;72.80;;;;;;5032038;28;19929;-51
2021/11/13 05:15:20;;;;;;;;;;;18.10;72.70;;;;;;5042560;28;20299;-49
2021/11/13 05:17:47;;;;;;;;;;;18.10;72.70;;;;;;5054184;28;20331;-51
2021/11/13 05:20:16;;;;;;;;;;;18.10;72.70;;;;;;5053836;28;19951;-53
2021/11/13 05:22:43;;;;;;;;;;;18.10;72.80;;;;;;5064349;28;20307;-51
2021/11/13 05:25:12;;;;;;;;;;;18.10;72.70;;;;;;5094034;28;19977;-52
2021/11/13 05:27:39;;;;;;;;;;;18.10;72.80;;;;;;5094293;28;19924;-50
2021/11/13 05:30:08;;;;;;;;;;;18.10;72.70;;;;;;5093970;28;19924;-49
2021/11/13 05:32:35;;;;;;;;;;;18.10;72.70;;;;;;5094264;28;19989;-54
2021/11/13 05:35:02;;;;;;;;;;;18.10;72.70;;;;;;5094208;28;19924;-50
2021/11/13 05:37:29;;;;;;;;;;;18.10;72.70;;;;;;5085883;28;20331;-53
2021/11/13 05:39:56;;;;;;;;;;;18.10;72.80;;;;;;5091826;28;20287;-52
2021/11/13 05:42:23;;;;;;;;;;;18.10;72.80;;;;;;5093775;28;20403;-47
2021/11/13 05:44:51;;;;;;;;;;;18.10;73.50;;;;;;5093819;28;19928;-50
2021/11/13 05:47:18;;;;;;;;;;;18.10;72.70;;;;;;5094111;28;19928;-51
2021/11/13 05:49:45;;;;;;;;;;;18.10;72.80;;;;;;5094068;28;19924;-51
2021/11/13 05:52:12;;;;;;;;;;;18.10;72.80;;;;;;5089642;28;19929;-50
2021/11/13 05:54:39;;;;;;;;;;;18.10;72.80;;;;;;5087790;28;20294;-49
2021/11/13 05:57:07;;;;;;;;;;;18.10;72.80;;;;;;5093563;28;19950;-51
2021/11/13 05:59:52;;;;;;;;;;;18.10;72.80;;;;;;5093724;28;20368;-52
2021/11/13 06:02:19;;;;;;;;;;;18.10;72.80;;;;;;5093889;28;20329;-45
2021/11/13 06:04:46;;;;;;;;;;;18.10;72.80;;;;;;5093929;28;19928;-48
2021/11/13 06:07:14;;;;;;;;;;;18.10;72.80;;;;;;5090604;28;19928;-45
2021/11/13 06:09:41;;;;;;;;;;;18.10;72.70;;;;;;5086413;28;19924;-50
2021/11/13 06:12:08;;;;;;;;;;;18.10;72.70;;;;;;5093556;28;19924;-54
2021/11/13 06:14:35;;;;;;;;;;;18.10;72.70;;;;;;5095076;28;20339;-52
2021/11/13 06:17:03;;;;;;;;;;;18.10;72.80;;;;;;5097500;28;19924;-53
2021/11/13 06:19:30;;;;;;;;;;;18.10;72.80;;;;;;5097776;28;19928;-54
2021/11/13 06:21:57;;;;;;;;;;;18.10;72.80;;;;;;5097746;28;20001;-52
2021/11/13 06:24:24;;;;;;;;;;;18.10;72.80;;;;;;5087096;28;19971;-53
2021/11/13 06:26:51;;;;;;;;;;;18.10;72.70;;;;;;5097304;28;20395;-55
2021/11/13 06:29:18;;;;;;;;;;;18.10;72.80;;;;;;5097576;28;20060;-51
2021/11/13 06:31:45;;;;;;;;;;;18.10;72.80;;;;;;5097555;28;19924;-47
2021/11/13 06:34:12;;;;;;;;;;;18.10;72.80;;;;;;5097449;28;19933;-51
2021/11/13 06:36:39;;;;;;;;;;;18.10;72.80;;;;;;5097035;28;20402;-49
2021/11/13 06:39:06;;;;;;;;;;;18.10;72.70;;;;;;5087150;28;19924;-49
2021/11/13 06:41:33;;;;;;;;;;;18.10;72.70;;;;;;5097374;28;20352;-47
2021/11/13 06:44:00;;;;;;;;;;;18.10;72.70;;;;;;5096975;28;19924;-51
2021/11/13 06:46:27;;;;;;;;;;;18.10;72.70;;;;;;5097280;28;20329;-52
2021/11/13 06:48:55;;;;;;;;;;;18.10;72.70;;;;;;5096932;28;19928;-54
2021/11/13 06:51:22;;;;;;;;;;;18.10;72.70;;;;;;5097181;28;19923;-50
2021/11/13 06:53:49;;;;;;;;;;;18.10;72.70;;;;;;5087424;28;19982;-50
2021/11/13 06:56:16;;;;;;;;;;;18.10;72.70;;;;;;5096595;28;20002;-52
2021/11/13 06:58:43;;;;;;;;;;;18.10;72.70;;;;;;5097070;28;19924;-51
2021/11/13 07:01:10;;;;;;;;;;;18.10;72.70;;;;;;5096679;28;19924;-52
2021/11/13 07:03:37;;;;;;;;;;;18.10;72.70;;;;;;5096570;28;19924;-52
2021/11/13 07:06:04;;;;;;;;;;;18.10;72.70;;;;;;5096790;28;19924;-53
2021/11/13 07:08:31;;;;;;;;;;;18.10;72.70;;;;;;5088948;28;20337;-52
2021/11/13 07:10:58;;;;;;;;;;;18.10;72.70;;;;;;5094942;28;19928;-51
2021/11/13 07:13:25;;;;;;;;;;;18.10;72.70;;;;;;5078940;28;19993;-53
2021/11/13 07:15:52;;;;;;;;;;;18.10;72.70;;;;;;5096696;28;19993;-51
2021/11/13 07:18:23;;;;;;;;;;;18.10;72.70;;;;;;5096376;28;19932;-47
2021/11/13 07:20:57;;;;;;;;;;;18.10;72.70;;;;;;5096296;28;20018;-51
2021/11/13 07:23:24;;;;;;;;;;;18.10;72.60;;;;;;5090391;28;19925;-53
2021/11/13 07:25:51;;;;;;;;;;;18.10;72.60;;;;;;5092816;28;19947;-49
2021/11/13 07:28:20;;;;;;;;;;;18.10;72.70;;;;;;5096465;28;20355;-48
2021/11/13 07:30:49;;;;;;;;;;;18.10;72.60;;;;;;5096425;28;19935;-48
2021/11/13 07:33:16;;;;;;;;;;;18.10;72.60;;;;;;5096260;28;19978;-49
2021/11/13 07:35:44;;;;;;;;;;;18.10;72.60;;;;;;5078001;28;19931;-49
2021/11/13 07:38:11;;;;;;;;;;;18.10;72.60;;;;;;5094087;28;19924;-50
2021/11/13 07:40:38;;;;;;;;;;;18.10;72.60;;;;;;5089092;28;19928;-48
2021/11/13 07:43:06;;;;;;;;;;;18.10;72.60;;;;;;5096123;28;20015;-47
2021/11/13 07:45:33;;;;;;;;;;;18.10;72.60;;;;;;5095820;28;19949;-51
2021/11/13 07:48:00;;;;;;;;;;;18.10;72.60;;;;;;5096077;28;19924;-47
2021/11/13 07:50:27;;;;;;;;;;;18.10;72.60;;;;;;5095679;28;19928;-46
2021/11/13 07:52:54;;;;;;;;;;;18.10;72.60;;;;;;5077536;28;19924;-52
2021/11/13 07:55:21;;;;;;;;;;;18.10;72.60;;;;;;5086598;28;19932;-48
2021/11/13 07:57:48;;;;;;;;;;;18.10;72.60;;;;;;5095297;28;20019;-48
2021/11/13 08:00:17;;;;;;;;;;;18.10;72.50;;;;;;5095478;28;20445;-45
2021/11/13 08:02:44;;;;;;;;;;;18.20;72.60;;;;;;5095465;28;20368;-48
2021/11/13 08:05:12;;;;;;;;;;;18.20;72.60;;;;;;5095646;28;19928;-48
2021/11/13 08:07:39;;;;;;;;;;;18.20;72.60;;;;;;5095547;28;19932;-48
2021/11/13 08:10:08;;;;;;;;;;;18.10;72.60;;;;;;5086926;28;20268;-48
2021/11/13 08:12:35;;;;;;;;;;;18.20;72.60;;;;;;5095303;28;19953;-47
2021/11/13 08:15:02;;;;;;;;;;;18.20;72.60;;;;;;5095242;28;19931;-52
2021/11/13 08:17:29;;;;;;;;;;;18.20;73.30;;;;;;5095171;28;20387;-50
2021/11/13 08:19:56;;;;;;;;;;;18.20;72.60;;;;;;5095027;28;19924;-50
2021/11/13 08:22:23;;;;;;;;;;;18.20;72.60;;;;;;5095142;28;19947;-52
2021/11/13 08:24:51;;;;;;;;;;;18.20;72.60;;;;;;5086277;28;19924;-49
2021/11/13 08:27:18;;;;;;;;;;;18.20;72.50;;;;;;5095033;28;20452;-47
2021/11/13 08:29:45;;;;;;;;;;;18.20;72.50;;;;;;5095280;28;19947;-52
2021/11/13 08:32:12;;;;;;;;;;;18.20;72.50;;;;;;5095175;28;19977;-47
2021/11/13 08:34:39;;;;;;;;;;;18.20;72.60;;;;;;5095162;28;20313;-47
2021/11/13 08:37:07;;;;;;;;;;;18.20;72.50;;;;;;5094507;28;20019;-47
2021/11/13 08:39:35;;;;;;;;;;;18.20;72.50;;;;;;5086768;28;19924;-50
2021/11/13 08:42:08;;;;;;;;;;;18.20;72.50;;;;;;5095047;28;19924;-46
2021/11/13 08:44:36;;;;;;;;;;;18.20;72.50;;;;;;5094658;28;19930;-51
2021/11/13 08:47:04;;;;;;;;;;;18.20;72.50;;;;;;5094907;28;19978;-50
2021/11/13 08:49:31;;;;;;;;;;;18.20;72.50;;;;;;5094485;28;19924;-50
2021/11/13 08:51:58;;;;;;;;;;;18.20;72.40;;;;;;5094517;28;19973;-49
2021/11/13 08:54:25;;;;;;;;;;;18.20;72.40;;;;;;5089186;28;19928;-45
2021/11/13 08:56:52;;;;;;;;;;;18.20;72.40;;;;;;5091912;28;19932;-49
2021/11/13 08:59:19;;;;;;;;;;;18.20;72.40;;;;;;5094729;28;19985;-55
2021/11/13 09:01:47;;;;;;;;;;;18.20;72.40;;;;;;5094365;28;19931;-49
2021/11/13 09:04:14;;;;;;;;;;;18.20;72.40;;;;;;5094263;28;19928;-52
2021/11/13 09:06:42;;;;;;;;;;;18.20;72.40;;;;;;5094430;28;19982;-51
2021/11/13 09:09:09;;;;;;;;;;;18.20;72.40;;;;;;5093060;28;19928;-49
2021/11/13 09:11:37;;;;;;;;;;;18.20;72.40;;;;;;5088139;28;20044;-51
2021/11/13 09:14:06;;;;;;;;;;;18.20;72.30;;;;;;5094463;28;20325;-50
2021/11/13 09:16:33;;;;;;;;;;;18.20;72.30;;;;;;5094329;28;19924;-50
2021/11/13 09:19:00;;;;;;;;;;;18.20;72.30;;;;;;5094084;28;19930;-50
2021/11/13 09:21:29;;;;;;;;;;;18.20;72.30;;;;;;5094340;28;19924;-50
2021/11/13 09:23:57;;;;;;;;;;;18.20;72.30;;;;;;5094103;28;19935;-54
2021/11/13 09:26:24;;;;;;;;;;;18.20;72.30;;;;;;5068436;28;20037;-53
2021/11/13 09:28:51;;;;;;;;;;;18.30;72.40;;;;;;5093865;28;19924;-47
2021/11/13 09:31:18;;;;;;;;;;;18.30;72.40;;;;;;5093846;28;19928;-49
2021/11/13 09:33:45;;;;;;;;;;;18.30;72.40;;;;;;5093831;28;20340;-51
2021/11/13 09:36:12;;;;;;;;;;;18.30;72.40;;;;;;5093746;28;19928;-55
2021/11/13 09:38:44;;;;;;;;;;;18.30;72.30;;;;;;5094147;28;20276;-46
2021/11/13 09:41:12;;;;;;;;;;;18.30;72.40;;;;;;5086971;28;20337;-48
2021/11/13 09:43:39;;;;;;;;;;;18.30;73.00;;;;;;5094009;28;19935;-51
2021/11/13 09:46:09;;;;;;;;;;;18.30;72.30;;;;;;5094127;28;19924;-49
2021/11/13 09:48:36;;;;;;;;;;;18.30;72.30;;;;;;5093753;28;19924;-46
2021/11/13 09:51:05;;;;;;;;;;;18.30;72.30;;;;;;5098791;28;20264;-48
2021/11/13 09:53:32;;;;;;;;;;;18.30;72.20;;;;;;5097979;28;19924;-50
2021/11/13 09:55:59;;;;;;;;;;;18.30;72.10;;;;;;5073032;28;19977;-48
2021/11/13 09:58:26;;;;;;;;;;;18.30;72.10;;;;;;5097848;28;19924;-54
2021/11/13 10:00:53;;;;;;;;;;;18.40;72.10;;;;;;5097579;28;20299;-49
2021/11/13 10:03:21;;;;;;;;;;;18.40;72.00;;;;;;5097482;28;19924;-51
2021/11/13 10:05:49;;;;;;;;;;;18.40;71.90;;;;;;5079536;28;20341;-54
2021/11/13 10:08:17;;;;;;;;;;;18.40;71.80;;;;;;5097790;28;19977;-52
2021/11/13 10:10:44;;;;;;;;;;;18.50;72.60;;;;;;5091216;28;20047;-54
2021/11/13 10:13:32;;;;;;;;;;;18.50;71.80;;;;;;5079677;28;19924;-53
2021/11/13 10:16:06;;;;;;;;;;;18.50;71.70;;;;;;5097888;28;20298;-54
2021/11/13 10:18:36;;;;;;;;;;;18.50;71.70;;;;;;5098236;28;19925;-54
2021/11/13 10:21:09;;;;;;;;;;;18.50;71.60;;;;;;5097260;28;20413;-52
2021/11/13 10:23:40;;;;;;;;;;;18.60;71.60;;;;;;5097503;28;19924;-55
2021/11/13 10:26:07;;;;;;;;;;;18.60;71.60;;;;;;5091528;28;20371;-51
2021/11/13 10:28:42;;;;;;;;;;;18.50;71.40;;;;;;5097584;28;19997;-47
2021/11/13 10:31:15;;;;;;;;;;;18.50;71.40;;;;;;5097903;28;20053;-49
2021/11/13 10:33:42;;;;;;;;;;;18.60;71.50;;;;;;5097345;28;20362;-50
2021/11/13 10:36:10;;;;;;;;;;;18.60;71.50;;;;;;5096793;28;19928;-47
2021/11/13 10:38:37;;;;;;;;;;;18.60;71.50;;;;;;5096938;28;20420;-48
2021/11/13 10:41:07;;;;;;;;;;;18.60;71.50;;;;;;5073295;28;20336;-51
2021/11/13 10:43:38;;;;;;;;;;;18.60;71.50;;;;;;5096974;28;19927;-52
2021/11/13 10:46:07;;;;;;;;;;;18.60;71.50;;;;;;5096680;28;20387;-53
2021/11/13 10:48:35;;;;;;;;;;;18.60;71.50;;;;;;5097095;28;19931;-50
2021/11/13 10:51:04;;;;;;;;;;;18.60;71.50;;;;;;5096646;28;19973;-52
2021/11/13 10:53:31;;;;;;;;;;;18.50;71.40;;;;;;5096919;28;19924;-48
2021/11/13 10:56:02;;;;;;;;;;;18.50;71.40;;;;;;5090957;28;19924;-46
2021/11/13 10:58:29;;;;;;;;;;;18.60;71.50;;;;;;5096728;28;20349;-54
2021/11/13 11:01:00;;;;;;;;;;;18.50;71.40;;;;;;5096773;28;19924;-54
2021/11/13 11:03:31;;;;;;;;;;;18.60;71.50;;;;;;5096962;28;19931;-48
2021/11/13 11:05:58;;;;;;;;;;;18.60;71.40;;;;;;5096630;28;19924;-49
2021/11/13 11:08:33;;;;;;;;;;;18.60;71.40;;;;;;5096895;28;19928;-50
2021/11/13 11:11:01;;;;;;;;;;;18.60;71.40;;;;;;5091059;28;19925;-51
2021/11/13 11:13:46;;;;;;;;;;;18.60;71.40;;;;;;5096739;28;19924;-51
2021/11/13 11:16:24;;;;;;;;;;;18.60;71.50;;;;;;5096660;28;20264;-52
2021/11/13 11:18:53;;;;;;;;;;;18.50;71.40;;;;;;5096748;28;20010;-48
2021/11/13 11:21:39;;;;;;;;;;;18.60;71.60;;;;;;5096314;28;19924;-47
2021/11/13 11:24:15;;;;;;;;;;;18.50;71.50;;;;;;5095997;28;19977;-53
2021/11/13 11:26:43;;;;;;;;;;;18.50;71.50;;;;;;5091593;28;19928;-51
2021/11/13 11:29:11;;;;;;;;;;;18.50;71.50;;;;;;5096471;28;19924;-55
2021/11/13 11:31:41;;;;;;;;;;;18.50;71.50;;;;;;5096331;28;20283;-49
2021/11/13 11:34:23;;;;;;;;;;;18.50;71.50;;;;;;5095997;28;19924;-49
2021/11/13 11:36:51;;;;;;;;;;;18.50;71.40;;;;;;5095930;28;19931;-47
2021/11/13 11:39:18;;;;;;;;;;;18.60;71.50;;;;;;5096276;28;19924;-54
2021/11/13 11:41:45;;;;;;;;;;;18.50;71.40;;;;;;5091401;28;19978;-49
2021/11/13 11:44:14;;;;;;;;;;;18.50;71.40;;;;;;5095642;28;20450;-49
2021/11/13 11:46:41;;;;;;;;;;;18.50;71.40;;;;;;5096063;28;19980;-52
2021/11/13 11:49:09;;;;;;;;;;;18.50;71.50;;;;;;5096130;28;19928;-48
2021/11/13 11:51:37;;;;;;;;;;;18.50;71.50;;;;;;5095744;28;19973;-47
2021/11/13 11:54:09;;;;;;;;;;;18.50;71.50;;;;;;5096038;28;20018;-51
2021/11/13 11:56:36;;;;;;;;;;;18.50;71.50;;;;;;5091129;28;19931;-50
2021/11/13 11:59:05;;;;;;;;;;;18.50;71.50;;;;;;5095625;28;19924;-50
2021/11/13 12:01:42;;;;;;;;;;;18.50;71.50;;;;;;5095752;28;19947;-47
2021/11/13 12:04:13;;;;;;;;;;;18.50;72.20;;;;;;5096233;28;19932;-52
2021/11/13 12:06:41;;;;;;;;;;;18.50;71.50;;;;;;5095339;28;20386;-48
2021/11/13 12:09:08;;;;;;;;;;;18.50;71.50;;;;;;5095776;28;20079;-47
2021/11/13 12:11:36;;;;;;;;;;;18.50;71.60;;;;;;5090602;28;19928;-48
2021/11/13 12:14:23;;;;;;;;;;;18.50;71.60;;;;;;5095210;28;19931;-49
2021/11/13 12:16:51;;;;;;;;;;;18.50;71.60;;;;;;5096363;28;19924;-45
2021/11/13 12:19:18;;;;;;;;;;;18.50;71.70;;;;;;5095504;28;20300;-50
2021/11/13 12:21:53;;;;;;;;;;;18.40;71.60;;;;;;5095219;28;19935;-47
2021/11/13 12:24:20;;;;;;;;;;;18.50;71.80;;;;;;5077102;28;19990;-49
2021/11/13 12:27:03;;;;;;;;;;;18.50;71.80;;;;;;5091490;28;20015;-45
2021/11/13 12:29:44;;;;;;;;;;;18.50;71.80;;;;;;5094781;28;19924;-50
2021/11/13 12:32:12;;;;;;;;;;;18.40;71.70;;;;;;5076954;28;20436;-53
2021/11/13 12:34:39;;;;;;;;;;;18.40;71.70;;;;;;5095144;28;19951;-47
2021/11/13 12:37:10;;;;;;;;;;;18.40;71.70;;;;;;5077416;28;20019;-55
2021/11/13 12:39:42;;;;;;;;;;;18.40;71.60;;;;;;5095154;28;20352;-45
2021/11/13 12:42:14;;;;;;;;;;;18.40;71.60;;;;;;5091757;28;19989;-49
2021/11/13 12:44:44;;;;;;;;;;;18.40;71.60;;;;;;5094743;28;19978;-49
2021/11/13 12:47:20;;;;;;;;;;;18.50;71.70;;;;;;5094385;28;19971;-52
2021/11/13 12:49:47;;;;;;;;;;;18.50;71.60;;;;;;5094405;28;19971;-48
2021/11/13 12:52:16;;;;;;;;;;;18.50;71.60;;;;;;5094547;28;19928;-51
2021/11/13 12:54:45;;;;;;;;;;;18.50;71.60;;;;;;5093992;28;20379;-50
2021/11/13 12:57:14;;;;;;;;;;;18.50;71.60;;;;;;5092165;28;20079;-51
2021/11/13 12:59:43;;;;;;;;;;;18.50;71.60;;;;;;5094438;28;19924;-52
2021/11/13 13:02:16;;;;;;;;;;;18.50;71.50;;;;;;5093672;28;20130;-47
2021/11/13 13:04:44;;;;;;;;;;;18.50;71.50;;;;;;5094880;28;19928;-46
2021/11/13 13:07:12;;;;;;;;;;;18.40;71.40;;;;;;5094521;28;19932;-55
2021/11/13 13:09:50;;;;;;;;;;;18.50;71.50;;;;;;5094583;28;19935;-53
2021/11/13 13:12:19;;;;;;;;;;;18.50;71.50;;;;;;5091790;28;19953;-47
2021/11/13 13:14:46;;;;;;;;;;;18.40;71.50;;;;;;5094533;28;19947;-53
2021/11/13 13:17:20;;;;;;;;;;;18.50;71.60;;;;;;5076167;28;19931;-49
2021/11/13 13:19:48;;;;;;;;;;;18.50;71.60;;;;;;5094163;28;19924;-50
2021/11/13 13:22:15;;;;;;;;;;;18.40;71.50;;;;;;5094646;28;19924;-52
2021/11/13 13:24:48;;;;;;;;;;;18.50;71.60;;;;;;5093824;28;19985;-53
2021/11/13 13:27:15;;;;;;;;;;;18.40;71.50;;;;;;5092561;28;19924;-48
2021/11/13 13:29:43;;;;;;;;;;;18.40;71.50;;;;;;5076453;28;19928;-52
2021/11/13 13:32:13;;;;;;;;;;;18.40;71.50;;;;;;5093835;28;19924;-54
2021/11/13 13:34:51;;;;;;;;;;;18.40;71.50;;;;;;5093940;28;19931;-50
2021/11/13 13:37:20;;;;;;;;;;;18.40;71.60;;;;;;5094001;28;20325;-48
2021/11/13 13:39:48;;;;;;;;;;;18.40;71.60;;;;;;5094999;28;19924;-51
2021/11/13 13:42:15;;;;;;;;;;;18.40;71.60;;;;;;5092828;28;19924;-49
2021/11/13 13:44:43;;;;;;;;;;;18.40;71.60;;;;;;5093159;28;19947;-52
2021/11/13 13:47:11;;;;;;;;;;;18.40;71.60;;;;;;5094343;28;19924;-48
2021/11/13 13:49:38;;;;;;;;;;;18.40;71.60;;;;;;5093809;28;19924;-48
2021/11/13 13:52:07;;;;;;;;;;;18.40;71.60;;;;;;5093895;28;19924;-50
2021/11/13 13:54:37;;;;;;;;;;;18.40;71.60;;;;;;5093877;28;19924;-52
2021/11/13 13:57:06;;;;;;;;;;;18.40;71.60;;;;;;5093596;28;20290;-52
2021/11/13 13:59:38;;;;;;;;;;;18.40;71.60;;;;;;5091291;28;19924;-55
2021/11/13 14:02:09;;;;;;;;;;;18.40;71.60;;;;;;5093610;28;20379;-53
2021/11/13 14:04:41;;;;;;;;;;;18.40;71.60;;;;;;5093616;28;20306;-52
2021/11/13 14:07:20;;;;;;;;;;;18.40;71.60;;;;;;5093769;28;19924;-53
2021/11/13 14:09:50;;;;;;;;;;;18.40;71.60;;;;;;5093695;28;19939;-50
2021/11/13 14:12:17;;;;;;;;;;;18.40;71.60;;;;;;5093801;28;19929;-55
2021/11/13 14:14:44;;;;;;;;;;;18.40;71.70;;;;;;5090962;28;19928;-50
2021/11/13 14:17:22;;;;;;;;;;;18.40;71.60;;;;;;5093551;28;20399;-51
2021/11/13 14:19:51;;;;;;;;;;;18.40;71.60;;;;;;5093760;28;20329;-51
2021/11/13 14:22:18;;;;;;;;;;;18.40;71.60;;;;;;5093752;28;19924;-53
2021/11/13 14:24:45;;;;;;;;;;;18.40;71.70;;;;;;5093213;28;19928;-45
2021/11/13 14:27:14;;;;;;;;;;;18.40;71.70;;;;;;5093322;28;19932;-45